createdAt,value
2018-06-15T00:04:20.034Z,58.60
2018-06-15T00:09:23.140Z,58.54
2018-06-15T00:14:26.250Z,58.54
2018-06-15T00:19:29.510Z,58.64
2018-06-15T00:24:32.740Z,59.20
2018-06-15T00:29:35.980Z,58.39
2018-06-15T00:34:39.357Z,57.51
2018-06-15T00:39:42.501Z,56.96
2018-06-15T00:44:45.628Z,57.77
2018-06-15T00:49:48.820Z,57.47
2018-06-15T00:54:52.079Z,57.03
2018-06-15T00:59:55.170Z,57.53
2018-06-15T01:04:58.307Z,57.48
2018-06-15T01:10:01.583Z,57.74
2018-06-15T01:15:05.006Z,57.25
2018-06-15T01:20:08.156Z,57.71
2018-06-15T01:25:11.331Z,57.98
2018-06-15T01:30:14.543Z,58.56
2018-06-15T01:35:17.828Z,58.80
2018-06-15T01:40:22.105Z,58.57
2018-06-15T01:45:25.391Z,58.56
2018-06-15T01:50:28.515Z,58.72
2018-06-15T01:55:31.689Z,59.18
2018-06-15T02:00:34.961Z,59.61
2018-06-15T02:05:38.071Z,59.89
2018-06-15T02:10:41.232Z,59.73
2018-06-15T02:15:45.913Z,59.87
2018-06-15T02:20:49.020Z,60.52
2018-06-15T02:25:52.244Z,60.37
2018-06-15T02:30:55.319Z,59.97
2018-06-15T02:35:58.537Z,61.45
2018-06-15T02:41:01.672Z,61.74
2018-06-15T02:46:04.879Z,61.95
2018-06-15T02:51:08.066Z,62.39
2018-06-15T02:56:11.670Z,61.82
2018-06-15T03:01:14.818Z,62.38
2018-06-15T03:06:17.953Z,62.01
2018-06-15T03:11:21.065Z,62.19
2018-06-15T03:16:24.189Z,62.12
2018-06-15T03:21:27.425Z,62.42
2018-06-15T03:26:31.213Z,63.89
2018-06-15T03:31:34.470Z,63.31
2018-06-15T03:36:37.605Z,63.42
2018-06-15T03:41:40.819Z,63.87
2018-06-15T03:46:44.340Z,63.09
2018-06-15T03:51:54.446Z,62.52
2018-06-15T03:56:58.381Z,61.51
2018-06-15T04:02:01.590Z,61.19
2018-06-15T04:07:04.944Z,60.70
2018-06-15T04:12:08.194Z,61.39
2018-06-15T04:17:11.663Z,60.46
2018-06-15T04:22:14.778Z,59.07
2018-06-15T04:27:20.940Z,59.27
2018-06-15T04:32:26.506Z,58.13
2018-06-15T04:37:32.620Z,58.74
2018-06-15T04:42:38.665Z,57.13
2018-06-15T04:47:42.233Z,56.31
2018-06-15T04:52:45.311Z,55.58
2018-06-15T04:57:48.428Z,56.16
2018-06-15T05:02:52.088Z,56.25
2018-06-15T05:07:56.537Z,55.03
2018-06-15T05:12:59.955Z,54.85
2018-06-15T05:18:03.141Z,57.04
2018-06-15T05:23:08.564Z,56.87
2018-06-15T05:28:12.296Z,56.39
2018-06-15T05:33:15.483Z,56.89
2018-06-15T05:38:18.615Z,56.32
2018-06-15T05:43:21.787Z,54.76
2018-06-15T05:48:24.970Z,55.15
2018-06-15T05:53:29.234Z,55.30
2018-06-15T05:58:32.558Z,54.29
2018-06-15T06:03:35.791Z,55.69
2018-06-15T06:08:38.996Z,55.12
2018-06-15T06:13:42.457Z,54.99
2018-06-15T06:18:45.568Z,56.45
2018-06-15T06:23:48.717Z,54.80
2018-06-15T06:28:52.390Z,54.46
2018-06-15T06:33:55.517Z,53.98
2018-06-15T06:38:58.708Z,54.74
2018-06-15T06:44:01.961Z,55.00
2018-06-15T06:49:05.178Z,54.89
2018-06-15T06:54:09.040Z,55.00
2018-06-15T06:59:12.147Z,53.36
2018-06-15T07:04:15.275Z,55.22
2018-06-15T07:09:18.450Z,53.74
2018-06-15T07:14:21.507Z,53.51
2018-06-15T07:19:26.858Z,53.25
2018-06-15T07:24:30.190Z,54.06
2018-06-15T07:29:33.463Z,53.09
2018-06-15T07:34:36.663Z,51.45
2018-06-15T07:39:39.725Z,49.88
2018-06-15T07:44:43.042Z,48.98
2018-06-15T07:49:46.130Z,49.58
2018-06-15T07:54:50.010Z,46.77
2018-06-15T07:59:53.130Z,47.51
2018-06-15T08:04:56.313Z,46.38
2018-06-15T08:09:59.422Z,45.42
2018-06-15T08:15:02.590Z,47.21
2018-06-15T08:20:05.872Z,45.91
2018-06-15T08:25:08.960Z,46.47
2018-06-15T08:30:12.237Z,45.13
2018-06-15T08:35:15.354Z,45.70
2018-06-15T08:40:19.053Z,45.71
2018-06-15T08:45:22.232Z,45.74
2018-06-15T08:50:25.508Z,45.83
2018-06-15T08:55:28.699Z,44.81
2018-06-15T09:00:31.858Z,42.50
2018-06-15T09:05:35.077Z,40.47
2018-06-15T09:10:38.231Z,37.74
2018-06-15T09:15:41.489Z,41.35
2018-06-15T09:20:45.030Z,38.71
2018-06-15T09:25:48.131Z,39.03
2018-06-15T09:30:51.209Z,41.31
2018-06-15T09:35:54.604Z,42.83
2018-06-15T09:40:57.722Z,40.29
2018-06-15T09:46:00.839Z,40.00
2018-06-15T09:51:04.205Z,39.32
2018-06-15T09:56:07.393Z,37.30
2018-06-15T10:01:10.859Z,35.57
2018-06-15T10:06:14.110Z,35.79
2018-06-15T10:11:17.046Z,39.32
2018-06-15T10:16:20.209Z,37.13
2018-06-15T10:21:23.293Z,36.69
2018-06-15T10:26:26.549Z,35.05
2018-06-15T10:31:29.773Z,33.56
2018-06-15T10:36:32.949Z,38.06
2018-06-15T10:41:36.162Z,38.73
2018-06-15T10:46:39.398Z,37.70
2018-06-15T10:51:42.495Z,35.53
2018-06-15T10:56:45.732Z,33.07
2018-06-15T11:01:49.128Z,34.35
2018-06-15T11:06:52.230Z,33.75
2018-06-15T11:11:55.413Z,35.96
2018-06-15T11:17:01.497Z,37.26
2018-06-15T11:22:04.673Z,36.46
2018-06-15T11:27:08.238Z,36.28
2018-06-15T11:32:11.354Z,37.03
2018-06-15T11:37:14.457Z,38.35
2018-06-15T11:42:17.576Z,36.64
2018-06-15T11:47:20.761Z,35.14
2018-06-15T11:52:23.985Z,36.63
2018-06-15T11:57:28.116Z,35.04
2018-06-15T12:02:31.286Z,34.76
2018-06-15T12:07:34.733Z,31.27
2018-06-15T12:12:37.874Z,31.28
2018-06-15T12:17:41.121Z,35.12
2018-06-15T12:22:44.676Z,34.31
2018-06-15T12:27:47.782Z,35.48
2018-06-15T12:32:51.000Z,35.38
2018-06-15T12:37:54.190Z,32.73
2018-06-15T12:42:57.275Z,34.99
2018-06-15T12:48:00.430Z,34.50
2018-06-15T12:53:04.144Z,37.13
2018-06-15T12:58:07.327Z,36.12
2018-06-15T13:03:11.337Z,36.81
2018-06-15T13:08:16.628Z,36.83
2018-06-15T13:13:19.816Z,34.23
2018-06-15T13:18:22.934Z,30.08
2018-06-15T13:23:26.213Z,30.04
2018-06-15T13:28:29.369Z,30.06
2018-06-15T13:33:32.510Z,34.04
2018-06-15T13:38:36.027Z,33.55
2018-06-15T13:43:39.260Z,35.16
2018-06-15T13:48:42.478Z,34.70
2018-06-15T13:53:45.731Z,34.82
2018-06-15T13:58:48.824Z,35.42
2018-06-15T14:03:52.006Z,35.23
2018-06-15T14:08:55.231Z,34.95
2018-06-15T14:13:58.772Z,38.44
2018-06-15T14:19:02.010Z,39.37
2018-06-15T14:24:05.148Z,41.03
2018-06-15T14:29:08.362Z,41.75
2018-06-15T14:34:11.620Z,41.86
2018-06-15T14:39:14.749Z,42.20
2018-06-15T14:44:17.978Z,42.85
2018-06-15T14:49:21.230Z,43.81
2018-06-15T14:54:24.439Z,43.36
2018-06-15T14:59:28.285Z,42.49
2018-06-15T15:04:31.548Z,43.06
2018-06-15T15:09:34.847Z,43.18
2018-06-15T15:14:38.315Z,43.23
2018-06-15T15:19:41.536Z,43.84
2018-06-15T15:24:45.511Z,43.26
2018-06-15T15:29:51.032Z,42.60
2018-06-15T15:34:56.775Z,43.59
2018-06-15T15:40:01.349Z,43.66
2018-06-15T15:45:05.204Z,44.32
2018-06-15T15:50:09.797Z,43.94
2018-06-15T15:55:14.129Z,43.39
2018-06-15T16:00:17.758Z,44.32
2018-06-15T16:05:22.379Z,44.95
2018-06-15T16:10:25.474Z,45.11
2018-06-15T16:15:28.886Z,45.52
2018-06-15T16:20:32.006Z,44.67
2018-06-15T16:25:35.472Z,44.16
2018-06-15T16:30:38.958Z,44.76
2018-06-15T16:35:42.094Z,44.03
2018-06-15T16:40:45.291Z,44.87
2018-06-15T16:45:48.448Z,44.15
2018-06-15T16:50:51.579Z,45.19
2018-06-15T16:55:54.690Z,45.25
2018-06-15T17:00:57.821Z,44.88
2018-06-15T17:06:01.239Z,45.28
2018-06-15T17:11:05.464Z,46.21
2018-06-15T17:16:09.841Z,46.43
2018-06-15T17:21:12.932Z,46.43
2018-06-15T17:26:16.046Z,45.89
2018-06-15T17:31:19.233Z,47.05
2018-06-15T17:36:22.306Z,46.22
2018-06-15T17:41:25.382Z,47.09
2018-06-15T17:46:28.536Z,47.69
2018-06-15T17:51:31.663Z,47.65
2018-06-15T17:56:34.925Z,47.93
2018-06-15T18:01:38.330Z,47.24
2018-06-15T18:06:41.628Z,45.78
2018-06-15T18:11:52.228Z,46.57
2018-06-15T18:16:55.746Z,46.69
2018-06-15T18:22:14.630Z,46.88
2018-06-15T18:27:19.207Z,47.53
2018-06-15T18:32:24.265Z,48.38
2018-06-15T18:37:28.302Z,49.18
2018-06-15T18:42:33.472Z,49.34
2018-06-15T18:47:38.434Z,49.80
2018-06-15T18:52:41.656Z,50.24
2018-06-15T18:57:45.789Z,50.36
2018-06-15T19:02:52.167Z,50.81
2018-06-15T19:07:57.226Z,50.88
2018-06-15T19:13:02.820Z,51.69
2018-06-15T19:18:19.757Z,52.26
2018-06-15T19:23:23.555Z,53.02
2018-06-15T19:28:26.964Z,54.01
2018-06-15T19:33:30.531Z,54.45
2018-06-15T19:38:34.563Z,55.48
2018-06-15T19:43:52.936Z,55.88
2018-06-15T19:48:56.893Z,55.04
2018-06-15T19:54:00.040Z,56.00
2018-06-15T19:59:03.472Z,57.48
2018-06-15T20:04:06.610Z,57.50
2018-06-15T20:09:09.772Z,57.07
2018-06-15T20:14:12.967Z,57.73
2018-06-15T20:19:16.039Z,57.99
2018-06-15T20:24:19.150Z,58.65
2018-06-15T20:29:22.376Z,59.42
2018-06-15T20:34:25.495Z,60.12
2018-06-15T20:39:28.597Z,60.20
2018-06-15T20:44:32.088Z,60.76
2018-06-15T20:49:35.400Z,60.96
2018-06-15T20:54:38.649Z,60.76
2018-06-15T20:59:41.803Z,61.81
2018-06-15T21:04:44.894Z,62.18
2018-06-15T21:09:48.016Z,61.76
2018-06-15T21:14:51.116Z,62.82
2018-06-15T21:19:54.273Z,62.57
2018-06-15T21:24:58.297Z,62.66
2018-06-15T21:30:01.511Z,62.88
2018-06-15T21:35:05.691Z,62.97
2018-06-15T21:40:09.223Z,63.58
2018-06-15T21:45:13.252Z,63.25
2018-06-15T21:50:18.429Z,63.61
2018-06-15T21:55:22.817Z,63.72
2018-06-15T22:00:25.940Z,63.50
2018-06-15T22:05:29.192Z,63.81
2018-06-15T22:10:32.933Z,64.33
2018-06-15T22:15:37.386Z,64.94
2018-06-15T22:20:40.689Z,63.99
2018-06-15T22:25:43.840Z,65.17
2018-06-15T22:30:47.276Z,65.16
2018-06-15T22:35:50.514Z,65.31
2018-06-15T22:40:53.567Z,66.32
2018-06-15T22:45:56.680Z,64.62
2018-06-15T22:50:59.805Z,64.84
2018-06-15T22:56:02.962Z,64.93
2018-06-15T23:01:06.116Z,65.31
2018-06-15T23:06:09.641Z,65.63
2018-06-15T23:11:12.777Z,65.64
2018-06-15T23:16:15.887Z,66.59
2018-06-15T23:21:19.087Z,65.71
2018-06-15T23:26:22.262Z,66.57
2018-06-15T23:31:25.830Z,66.54
2018-06-15T23:36:29.193Z,66.45
2018-06-15T23:41:32.362Z,66.69
2018-06-15T23:46:35.585Z,67.64
2018-06-15T23:51:38.969Z,67.06
2018-06-15T23:56:42.951Z,68.26
